Time;durP1;ratioP1;P1;durP2;ratioP2;P2;SDS_P1;SDS_P2;PMS_P1;PMS_P2;Temp;Humidity;BMP_temperature;BMP_pressure;BME280_temperature;BME280_humidity;BME280_pressure;Samples;Min_cycle;Max_cycle;Signal;HPM_P1;HPM_P2
2023/12/01 00:01:18;;;;;;;16.65;2.50;;;;;;;;;;5089351;28;20028;-38
2023/12/01 00:03:47;;;;;;;12.15;2.72;;;;;;;;;;5076564;28;20055;-37
2023/12/01 00:06:14;;;;;;;16.35;2.55;;;;;;;;;;5076049;28;20039;-37
2023/12/01 00:08:41;;;;;;;14.73;3.25;;;;;;;;;;5087117;28;20028;-38
2023/12/01 00:11:08;;;;;;;25.95;4.13;;;;;;;;;;5079063;28;20481;-38
2023/12/01 00:13:35;;;;;;;24.17;3.30;;;;;;;;;;5084792;28;20037;-38
2023/12/01 00:16:02;;;;;;;19.00;3.13;;;;;;;;;;5079990;28;20032;-37
2023/12/01 00:18:29;;;;;;;16.50;2.83;;;;;;;;;;5077727;28;20016;-37
2023/12/01 00:20:56;;;;;;;18.13;2.97;;;;;;;;;;5081816;28;20079;-37
2023/12/01 00:23:23;;;;;;;20.17;3.05;;;;;;;;;;5081998;28;20090;-38
2023/12/01 00:25:50;;;;;;;17.52;2.75;;;;;;;;;;5075064;28;20108;-37
2023/12/01 00:28:17;;;;;;;17.83;3.20;;;;;;;;;;5106340;28;20032;-38
2023/12/01 00:30:44;;;;;;;22.17;2.83;;;;;;;;;;5090739;28;20056;-39
2023/12/01 00:33:11;;;;;;;21.40;3.05;;;;;;;;;;5085997;28;20033;-39
2023/12/01 00:35:38;;;;;;;19.10;3.00;;;;;;;;;;5077837;28;20109;-39
2023/12/01 00:38:06;;;;;;;22.92;2.83;;;;;;;;;;5080541;28;20102;-39
2023/12/01 00:40:33;;;;;;;18.73;3.78;;;;;;;;;;5089793;28;20390;-39
2023/12/01 00:43:01;;;;;;;25.63;5.80;;;;;;;;;;5091324;28;20433;-39
2023/12/01 00:45:28;;;;;;;35.55;9.35;;;;;;;;;;5079705;28;20032;-39
2023/12/01 00:47:55;;;;;;;29.05;8.60;;;;;;;;;;5083647;28;20456;-39
2023/12/01 00:50:22;;;;;;;34.50;10.07;;;;;;;;;;5094929;28;20035;-39
2023/12/01 00:52:49;;;;;;;24.67;8.32;;;;;;;;;;5095475;28;20098;-39
2023/12/01 00:55:16;;;;;;;26.02;8.02;;;;;;;;;;5095132;28;20028;-39
2023/12/01 00:57:43;;;;;;;25.58;8.23;;;;;;;;;;5095454;28;20036;-39
2023/12/01 01:00:10;;;;;;;25.88;7.53;;;;;;;;;;5111164;28;20112;-39
2023/12/01 01:02:37;;;;;;;17.15;6.75;;;;;;;;;;5093452;28;20036;-39
2023/12/01 01:05:04;;;;;;;14.30;5.22;;;;;;;;;;5089034;28;20040;-41
2023/12/01 01:07:31;;;;;;;20.17;5.63;;;;;;;;;;5086284;28;20036;-39
2023/12/01 01:09:58;;;;;;;25.05;5.50;;;;;;;;;;5074588;28;20059;-40
2023/12/01 01:12:25;;;;;;;21.15;4.95;;;;;;;;;;5090202;28;20035;-39
2023/12/01 01:14:52;;;;;;;22.50;4.75;;;;;;;;;;5084509;28;20029;-38
2023/12/01 01:17:19;;;;;;;15.85;4.55;;;;;;;;;;5074588;28;20099;-39
2023/12/01 01:19:47;;;;;;;17.15;4.43;;;;;;;;;;5074450;28;20032;-39
2023/12/01 01:22:14;;;;;;;14.10;3.97;;;;;;;;;;5110277;27;20069;-39
2023/12/01 01:24:41;;;;;;;12.25;3.95;;;;;;;;;;5094212;28;20063;-39
2023/12/01 01:27:08;;;;;;;16.42;4.15;;;;;;;;;;5094288;28;20057;-39
2023/12/01 01:29:35;;;;;;;18.98;3.50;;;;;;;;;;5093951;28;20111;-37
2023/12/01 01:32:02;;;;;;;24.45;3.70;;;;;;;;;;5094824;28;20035;-37
2023/12/01 01:34:29;;;;;;;23.08;4.40;;;;;;;;;;5079389;28;20056;-37
2023/12/01 01:36:56;;;;;;;23.77;3.72;;;;;;;;;;5081055;28;20112;-37
2023/12/01 01:39:23;;;;;;;22.00;3.35;;;;;;;;;;5081393;28;20036;-38
2023/12/01 01:41:50;;;;;;;32.60;3.50;;;;;;;;;;5092098;28;20023;-40
2023/12/01 01:44:17;;;;;;;18.40;2.60;;;;;;;;;;5091282;28;20035;-40
2023/12/01 01:46:44;;;;;;;16.58;2.53;;;;;;;;;;5092125;28;20050;-40
2023/12/01 01:49:11;;;;;;;16.33;2.58;;;;;;;;;;5092563;28;20451;-40
2023/12/01 01:51:39;;;;;;;17.00;2.78;;;;;;;;;;5092296;28;20768;-41
2023/12/01 01:54:06;;;;;;;17.27;2.47;;;;;;;;;;5093144;28;20024;-40
2023/12/01 01:56:35;;;;;;;15.18;2.50;;;;;;;;;;5091815;28;20042;-40
2023/12/01 01:59:02;;;;;;;16.00;2.95;;;;;;;;;;5092676;28;20769;-38
2023/12/01 02:01:29;;;;;;;11.68;2.03;;;;;;;;;;5090619;28;20064;-39
2023/12/01 02:03:56;;;;;;;10.98;2.60;;;;;;;;;;5091802;28;20044;-40
2023/12/01 02:06:30;;;;;;;10.75;2.17;;;;;;;;;;5093652;28;20214;-38
2023/12/01 02:08:58;;;;;;;11.27;1.92;;;;;;;;;;5091926;28;20024;-38
2023/12/01 02:11:25;;;;;;;6.10;1.70;;;;;;;;;;5093485;28;20052;-39
2023/12/01 02:13:53;;;;;;;9.85;1.83;;;;;;;;;;5093530;28;20046;-39
2023/12/01 02:16:20;;;;;;;6.93;1.63;;;;;;;;;;5093514;28;20023;-38
2023/12/01 02:18:48;;;;;;;7.85;1.50;;;;;;;;;;5093024;28;20020;-39
2023/12/01 02:21:15;;;;;;;5.47;1.23;;;;;;;;;;5093971;28;20032;-37
2023/12/01 02:23:44;;;;;;;5.50;1.40;;;;;;;;;;5093575;28;20044;-39
2023/12/01 02:26:11;;;;;;;7.22;1.27;;;;;;;;;;5093893;28;20043;-37
2023/12/01 02:28:38;;;;;;;4.22;1.45;;;;;;;;;;5093848;28;20031;-39
2023/12/01 02:31:05;;;;;;;7.78;1.35;;;;;;;;;;5093917;28;20149;-39
2023/12/01 02:33:32;;;;;;;6.30;1.10;;;;;;;;;;5093903;28;20024;-38
2023/12/01 02:35:59;;;;;;;7.45;1.08;;;;;;;;;;5093147;28;20117;-38
2023/12/01 02:38:26;;;;;;;5.22;0.95;;;;;;;;;;5093011;28;20149;-38
2023/12/01 02:40:53;;;;;;;6.28;1.17;;;;;;;;;;5092924;28;20024;-39
2023/12/01 02:43:21;;;;;;;8.07;0.90;;;;;;;;;;5093187;28;20032;-40
2023/12/01 02:45:48;;;;;;;6.00;0.85;;;;;;;;;;5092975;28;20436;-38
2023/12/01 02:48:16;;;;;;;5.53;1.10;;;;;;;;;;5093110;28;20039;-39
2023/12/01 02:50:45;;;;;;;3.60;0.90;;;;;;;;;;5093345;28;20055;-39
2023/12/01 02:53:12;;;;;;;4.60;1.08;;;;;;;;;;5093424;28;20032;-39
2023/12/01 02:55:39;;;;;;;3.40;0.85;;;;;;;;;;5093392;28;20024;-39
2023/12/01 02:58:06;;;;;;;4.88;1.30;;;;;;;;;;5093390;28;20490;-38
2023/12/01 03:00:33;;;;;;;5.32;0.82;;;;;;;;;;5093237;28;20449;-39
2023/12/01 03:03:00;;;;;;;3.78;1.10;;;;;;;;;;5092855;28;20052;-38
2023/12/01 03:05:27;;;;;;;6.97;1.10;;;;;;;;;;5093296;28;20082;-38
2023/12/01 03:07:54;;;;;;;3.53;1.13;;;;;;;;;;5092277;28;20021;-38
2023/12/01 03:10:23;;;;;;;4.50;1.00;;;;;;;;;;5093166;28;20024;-38
2023/12/01 03:12:50;;;;;;;4.78;0.90;;;;;;;;;;5092870;28;20074;-39
2023/12/01 03:15:18;;;;;;;8.63;1.83;;;;;;;;;;5093007;28;20097;-39
2023/12/01 03:17:45;;;;;;;8.95;1.40;;;;;;;;;;5092787;28;20028;-39
2023/12/01 03:20:14;;;;;;;38.17;2.10;;;;;;;;;;5093032;28;20089;-38
2023/12/01 03:22:42;;;;;;;8.35;0.98;;;;;;;;;;5092973;28;20127;-39
2023/12/01 03:25:11;;;;;;;18.58;1.50;;;;;;;;;;5092757;28;20027;-38
2023/12/01 03:27:41;;;;;;;72.38;4.57;;;;;;;;;;5092637;28;20028;-41
2023/12/01 03:30:18;;;;;;;100.90;7.10;;;;;;;;;;5092664;28;20028;-42
2023/12/01 03:32:46;;;;;;;85.15;6.28;;;;;;;;;;5092612;28;20024;-38
2023/12/01 03:35:14;;;;;;;73.35;4.93;;;;;;;;;;5092665;28;20035;-38
2023/12/01 03:37:41;;;;;;;59.40;3.85;;;;;;;;;;5091411;28;20039;-39
2023/12/01 03:40:17;;;;;;;28.52;1.92;;;;;;;;;;5092474;28;20382;-40
2023/12/01 03:42:48;;;;;;;15.73;2.33;;;;;;;;;;5092478;28;20104;-38
2023/12/01 03:45:15;;;;;;;15.32;2.70;;;;;;;;;;5092374;28;20028;-41
2023/12/01 03:47:44;;;;;;;18.00;2.63;;;;;;;;;;5092250;28;20371;-42
2023/12/01 03:50:11;;;;;;;14.93;2.50;;;;;;;;;;5092235;28;20516;-40
2023/12/01 03:52:39;;;;;;;13.52;2.72;;;;;;;;;;5092440;28;20046;-40
2023/12/01 03:55:06;;;;;;;11.05;2.20;;;;;;;;;;5092305;28;20035;-38
2023/12/01 03:57:33;;;;;;;8.65;2.17;;;;;;;;;;5092523;28;20023;-39
2023/12/01 04:00:00;;;;;;;7.25;2.20;;;;;;;;;;5092123;28;20100;-37
2023/12/01 04:02:28;;;;;;;8.75;1.90;;;;;;;;;;5089784;28;20099;-38
2023/12/01 04:04:56;;;;;;;8.02;2.30;;;;;;;;;;5071476;28;20135;-38
2023/12/01 04:07:23;;;;;;;8.75;2.10;;;;;;;;;;5071898;28;20029;-37
2023/12/01 04:09:52;;;;;;;6.53;2.05;;;;;;;;;;5071720;28;20053;-38
2023/12/01 04:12:19;;;;;;;8.77;2.50;;;;;;;;;;5071755;28;20074;-37
2023/12/01 04:14:46;;;;;;;5.97;2.13;;;;;;;;;;5071682;28;20467;-39
2023/12/01 04:17:13;;;;;;;9.77;2.40;;;;;;;;;;5071600;28;20051;-39
2023/12/01 04:19:40;;;;;;;8.25;2.15;;;;;;;;;;5071641;28;20029;-40
2023/12/01 04:22:07;;;;;;;8.55;2.17;;;;;;;;;;5071540;28;20029;-38
2023/12/01 04:24:35;;;;;;;7.40;2.30;;;;;;;;;;5071559;28;20107;-38
2023/12/01 04:27:02;;;;;;;12.50;2.85;;;;;;;;;;5071442;28;20025;-38
2023/12/01 04:29:30;;;;;;;8.93;2.05;;;;;;;;;;5071534;28;20020;-39
2023/12/01 04:31:58;;;;;;;9.20;2.10;;;;;;;;;;5070286;28;20471;-39
2023/12/01 04:34:26;;;;;;;7.60;2.30;;;;;;;;;;5071610;28;20390;-38
2023/12/01 04:36:56;;;;;;;6.50;2.00;;;;;;;;;;5071572;28;20107;-40
2023/12/01 04:39:23;;;;;;;7.53;2.47;;;;;;;;;;5071508;28;20028;-39
2023/12/01 04:41:51;;;;;;;9.15;2.55;;;;;;;;;;5071439;28;20032;-39
2023/12/01 04:44:18;;;;;;;6.57;2.30;;;;;;;;;;5071348;28;20464;-38
2023/12/01 04:46:45;;;;;;;7.78;2.03;;;;;;;;;;5071376;28;20107;-38
2023/12/01 04:49:12;;;;;;;7.60;2.13;;;;;;;;;;5071007;28;20056;-36
2023/12/01 04:51:39;;;;;;;7.13;2.15;;;;;;;;;;5071762;28;20028;-38
2023/12/01 04:54:06;;;;;;;8.20;1.98;;;;;;;;;;5071221;28;20119;-38
2023/12/01 04:56:34;;;;;;;9.50;2.25;;;;;;;;;;5071243;28;20406;-38
2023/12/01 04:59:04;;;;;;;6.63;1.77;;;;;;;;;;5071252;28;20028;-38
2023/12/01 05:01:35;;;;;;;7.80;2.20;;;;;;;;;;5071437;28;20478;-37
2023/12/01 05:04:02;;;;;;;10.85;2.42;;;;;;;;;;5071043;28;20115;-37
2023/12/01 05:06:29;;;;;;;8.07;1.88;;;;;;;;;;5071038;28;20394;-37
2023/12/01 05:08:56;;;;;;;5.60;1.77;;;;;;;;;;5071269;28;20032;-37
2023/12/01 05:11:23;;;;;;;5.45;1.52;;;;;;;;;;5071216;28;20400;-37
2023/12/01 05:13:51;;;;;;;6.53;1.85;;;;;;;;;;5071322;28;20032;-37
2023/12/01 05:16:18;;;;;;;5.93;1.70;;;;;;;;;;5071131;28;20417;-37
2023/12/01 05:18:45;;;;;;;4.68;1.55;;;;;;;;;;5071012;28;20032;-37
2023/12/01 05:21:12;;;;;;;3.80;1.40;;;;;;;;;;5071221;28;20027;-37
2023/12/01 05:23:39;;;;;;;5.93;1.67;;;;;;;;;;5070981;28;20025;-38
2023/12/01 05:26:06;;;;;;;6.85;1.70;;;;;;;;;;5070968;28;20047;-37
2023/12/01 05:28:33;;;;;;;4.88;1.55;;;;;;;;;;5070925;28;20021;-38
2023/12/01 05:31:00;;;;;;;3.92;1.52;;;;;;;;;;5072360;28;20025;-37
2023/12/01 05:33:27;;;;;;;9.38;1.60;;;;;;;;;;5074697;28;20032;-37
2023/12/01 05:35:54;;;;;;;4.20;1.48;;;;;;;;;;5073333;28;20048;-37
2023/12/01 05:38:21;;;;;;;5.32;1.63;;;;;;;;;;5074646;28;20016;-37
2023/12/01 05:40:48;;;;;;;6.63;1.75;;;;;;;;;;5074597;28;20046;-37
2023/12/01 05:43:16;;;;;;;5.35;2.13;;;;;;;;;;5074442;28;20481;-37
2023/12/01 05:45:43;;;;;;;5.50;1.77;;;;;;;;;;5074501;28;20040;-37
2023/12/01 05:48:10;;;;;;;5.70;1.67;;;;;;;;;;5074479;28;20024;-37
2023/12/01 05:50:37;;;;;;;3.83;1.55;;;;;;;;;;5074428;28;20025;-37
2023/12/01 05:53:08;;;;;;;5.65;1.80;;;;;;;;;;5074459;28;20025;-37
2023/12/01 05:55:36;;;;;;;5.53;1.63;;;;;;;;;;5074398;28;20052;-37
2023/12/01 05:58:13;;;;;;;3.58;1.48;;;;;;;;;;5074219;28;20526;-37
2023/12/01 06:00:41;;;;;;;5.65;1.65;;;;;;;;;;5073917;28;20563;-38
2023/12/01 06:03:09;;;;;;;3.65;1.60;;;;;;;;;;5093023;28;20136;-38
2023/12/01 06:05:37;;;;;;;5.88;1.42;;;;;;;;;;5094327;28;20024;-37
2023/12/01 06:08:04;;;;;;;4.72;1.30;;;;;;;;;;5094346;28;20485;-37
2023/12/01 06:10:32;;;;;;;4.88;1.40;;;;;;;;;;5094357;28;20059;-37
2023/12/01 06:12:59;;;;;;;3.78;1.40;;;;;;;;;;5094268;28;20550;-37
2023/12/01 06:15:29;;;;;;;6.03;1.55;;;;;;;;;;5094296;28;20073;-37
2023/12/01 06:18:02;;;;;;;4.45;1.30;;;;;;;;;;5094055;28;20068;-37
2023/12/01 06:20:30;;;;;;;8.13;1.67;;;;;;;;;;5093959;28;20103;-37
2023/12/01 06:22:59;;;;;;;3.97;1.30;;;;;;;;;;5094077;28;20099;-37
2023/12/01 06:25:28;;;;;;;5.57;1.58;;;;;;;;;;5093921;28;20035;-37
2023/12/01 06:28:02;;;;;;;3.20;1.50;;;;;;;;;;5093984;28;20055;-38
2023/12/01 06:30:33;;;;;;;7.38;1.83;;;;;;;;;;5093968;28;20027;-37
2023/12/01 06:33:04;;;;;;;5.18;1.50;;;;;;;;;;5093804;28;20409;-38
2023/12/01 06:35:31;;;;;;;4.97;1.60;;;;;;;;;;5093868;28;20107;-37
2023/12/01 06:37:58;;;;;;;4.13;1.45;;;;;;;;;;5093687;28;20024;-37
2023/12/01 06:40:25;;;;;;;4.28;1.70;;;;;;;;;;5093841;28;20031;-37
2023/12/01 06:42:53;;;;;;;3.53;1.40;;;;;;;;;;5092508;28;20028;-37
2023/12/01 06:45:21;;;;;;;4.88;1.50;;;;;;;;;;5093755;28;20363;-37
2023/12/01 06:47:49;;;;;;;7.55;1.77;;;;;;;;;;5093605;28;20024;-37
2023/12/01 06:50:17;;;;;;;8.13;1.90;;;;;;;;;;5093589;28;20027;-37
2023/12/01 06:52:45;;;;;;;4.07;1.77;;;;;;;;;;5093623;28;20030;-37
2023/12/01 06:55:12;;;;;;;7.22;1.73;;;;;;;;;;5093625;28;20039;-37
2023/12/01 06:57:41;;;;;;;9.10;2.10;;;;;;;;;;5093329;28;20437;-37
2023/12/01 07:00:08;;;;;;;7.88;1.92;;;;;;;;;;5093402;28;20043;-37
2023/12/01 07:02:39;;;;;;;6.40;1.70;;;;;;;;;;5093300;28;20028;-38
2023/12/01 07:05:08;;;;;;;7.82;1.90;;;;;;;;;;5093244;28;20582;-37
2023/12/01 07:07:37;;;;;;;5.95;2.05;;;;;;;;;;5093293;28;20028;-37
2023/12/01 07:10:07;;;;;;;6.53;1.80;;;;;;;;;;5093213;28;20024;-37
2023/12/01 07:12:34;;;;;;;5.80;1.67;;;;;;;;;;5093297;28;20024;-37
2023/12/01 07:15:02;;;;;;;6.90;2.10;;;;;;;;;;5093186;28;20569;-37
2023/12/01 07:17:29;;;;;;;5.38;1.85;;;;;;;;;;5093202;28;20491;-37
2023/12/01 07:19:56;;;;;;;6.00;1.67;;;;;;;;;;5093012;28;20016;-37
2023/12/01 07:22:24;;;;;;;6.50;2.10;;;;;;;;;;5093034;28;20067;-37
2023/12/01 07:24:52;;;;;;;6.90;1.88;;;;;;;;;;5092929;28;20105;-37
2023/12/01 07:27:25;;;;;;;5.22;2.20;;;;;;;;;;5092676;28;20036;-37
2023/12/01 07:29:52;;;;;;;7.18;2.15;;;;;;;;;;5092754;28;20035;-37
2023/12/01 07:32:19;;;;;;;5.35;1.83;;;;;;;;;;5093026;28;20478;-37
2023/12/01 07:34:46;;;;;;;6.20;2.28;;;;;;;;;;5092813;28;20095;-37
2023/12/01 07:37:13;;;;;;;13.02;2.38;;;;;;;;;;5092624;28;20028;-37
2023/12/01 07:39:40;;;;;;;8.45;2.13;;;;;;;;;;5092733;28;20482;-37
2023/12/01 07:42:08;;;;;;;7.57;2.03;;;;;;;;;;5091261;28;20386;-37
2023/12/01 07:44:35;;;;;;;5.88;2.08;;;;;;;;;;5092508;28;20582;-37
2023/12/01 07:47:04;;;;;;;5.45;2.00;;;;;;;;;;5092447;28;20115;-37
2023/12/01 07:49:32;;;;;;;6.40;2.47;;;;;;;;;;5092771;28;20379;-37
2023/12/01 07:51:59;;;;;;;9.52;2.33;;;;;;;;;;5092496;28;20028;-37
2023/12/01 07:54:26;;;;;;;8.45;2.20;;;;;;;;;;5092067;28;20056;-37
2023/12/01 07:56:53;;;;;;;5.20;1.90;;;;;;;;;;5092242;28;20020;-37
2023/12/01 07:59:21;;;;;;;7.55;1.85;;;;;;;;;;5092351;28;20074;-37
2023/12/01 08:01:48;;;;;;;5.95;1.75;;;;;;;;;;5092250;28;20024;-37
2023/12/01 08:04:15;;;;;;;5.65;1.88;;;;;;;;;;5092101;28;20102;-37
2023/12/01 08:06:41;;;;;;;7.75;2.05;;;;;;;;;;5092166;28;20027;-37
2023/12/01 08:09:09;;;;;;;6.40;1.83;;;;;;;;;;5092174;28;20755;-37
2023/12/01 08:11:36;;;;;;;4.93;1.90;;;;;;;;;;5090830;28;20390;-37
2023/12/01 08:14:03;;;;;;;4.63;1.80;;;;;;;;;;5092124;28;20025;-37
2023/12/01 08:16:30;;;;;;;5.25;1.70;;;;;;;;;;5091955;28;20051;-38
2023/12/01 08:18:58;;;;;;;6.35;1.73;;;;;;;;;;5092116;28;20442;-37
2023/12/01 08:21:25;;;;;;;4.40;1.60;;;;;;;;;;5091722;28;20102;-37
2023/12/01 08:23:54;;;;;;;5.53;1.67;;;;;;;;;;5091905;28;20051;-37
2023/12/01 08:26:24;;;;;;;4.10;1.40;;;;;;;;;;5091886;28;20020;-37
2023/12/01 08:28:51;;;;;;;4.13;1.40;;;;;;;;;;5091837;28;20470;-37
2023/12/01 08:31:18;;;;;;;5.75;1.60;;;;;;;;;;5084358;28;20028;-37
2023/12/01 08:33:45;;;;;;;3.72;1.42;;;;;;;;;;5087214;28;20040;-37
2023/12/01 08:36:12;;;;;;;7.25;1.55;;;;;;;;;;5089930;28;20478;-37
2023/12/01 08:38:44;;;;;;;7.65;1.40;;;;;;;;;;5091680;28;20016;-37
2023/12/01 08:41:11;;;;;;;6.97;1.55;;;;;;;;;;5091698;28;20020;-37
2023/12/01 08:43:38;;;;;;;8.15;1.50;;;;;;;;;;5091689;28;20027;-37
2023/12/01 08:46:05;;;;;;;6.28;1.75;;;;;;;;;;5091758;28;20039;-37
2023/12/01 08:48:32;;;;;;;4.38;1.55;;;;;;;;;;5091723;28;20066;-37
2023/12/01 08:50:59;;;;;;;7.50;1.58;;;;;;;;;;5091750;28;20109;-37
2023/12/01 08:53:26;;;;;;;6.15;1.27;;;;;;;;;;5091687;28;20051;-37
2023/12/01 08:55:53;;;;;;;8.57;1.90;;;;;;;;;;5091764;28;20051;-37
2023/12/01 08:58:22;;;;;;;7.07;1.75;;;;;;;;;;5091479;28;20028;-37
2023/12/01 09:00:49;;;;;;;3.67;1.40;;;;;;;;;;5091527;28;20107;-37
2023/12/01 09:03:16;;;;;;;4.65;1.10;;;;;;;;;;5091240;28;20131;-37
2023/12/01 09:05:43;;;;;;;4.15;1.40;;;;;;;;;;5091139;28;20028;-37
2023/12/01 09:08:11;;;;;;;4.72;1.40;;;;;;;;;;5095562;28;20471;-37
2023/12/01 09:10:39;;;;;;;4.45;1.50;;;;;;;;;;5095567;28;20024;-37
2023/12/01 09:13:06;;;;;;;8.55;1.52;;;;;;;;;;5095606;28;20032;-37
2023/12/01 09:15:32;;;;;;;5.28;1.63;;;;;;;;;;5095555;28;20099;-37
2023/12/01 09:17:59;;;;;;;5.10;1.52;;;;;;;;;;5095406;28;20110;-37
2023/12/01 09:20:26;;;;;;;5.93;1.90;;;;;;;;;;5095441;28;20044;-37
2023/12/01 09:22:53;;;;;;;5.43;1.80;;;;;;;;;;5095346;28;20044;-37
2023/12/01 09:25:20;;;;;;;9.10;1.90;;;;;;;;;;5095189;28;20028;-37
2023/12/01 09:27:47;;;;;;;5.63;1.80;;;;;;;;;;5095154;28;20071;-37
2023/12/01 09:30:16;;;;;;;5.07;1.77;;;;;;;;;;5095259;28;20099;-37
2023/12/01 09:32:43;;;;;;;3.63;1.75;;;;;;;;;;5095133;28;20039;-37
2023/12/01 09:35:10;;;;;;;5.28;1.45;;;;;;;;;;5095057;28;20093;-37
2023/12/01 09:37:37;;;;;;;5.03;1.52;;;;;;;;;;5093545;28;20039;-37
2023/12/01 09:40:06;;;;;;;6.35;2.00;;;;;;;;;;5095242;28;20419;-37
2023/12/01 09:42:39;;;;;;;4.28;1.48;;;;;;;;;;5094885;28;20462;-37
2023/12/01 09:45:09;;;;;;;6.57;1.92;;;;;;;;;;5094822;28;20554;-37
2023/12/01 09:47:40;;;;;;;5.15;1.67;;;;;;;;;;5094746;28;20140;-37
2023/12/01 09:50:10;;;;;;;6.03;1.52;;;;;;;;;;5094928;28;20050;-37
2023/12/01 09:52:37;;;;;;;5.45;1.67;;;;;;;;;;5094688;28;20031;-37
2023/12/01 09:55:04;;;;;;;3.53;1.40;;;;;;;;;;5094643;28;20096;-37
2023/12/01 09:57:31;;;;;;;5.15;2.13;;;;;;;;;;5091197;28;20481;-37
2023/12/01 09:59:58;;;;;;;5.28;1.73;;;;;;;;;;5093975;28;20020;-37
2023/12/01 10:02:25;;;;;;;4.95;1.55;;;;;;;;;;5093911;28;20020;-37
2023/12/01 10:05:06;;;;;;;8.68;1.95;;;;;;;;;;5091127;28;20060;-37
2023/12/01 10:07:36;;;;;;;4.88;1.50;;;;;;;;;;5074159;28;20024;-37
2023/12/01 10:10:21;;;;;;;5.85;2.17;;;;;;;;;;5074267;28;20025;-37
2023/12/01 10:12:55;;;;;;;5.22;1.65;;;;;;;;;;5074177;28;20447;-37
2023/12/01 10:15:24;;;;;;;3.92;1.35;;;;;;;;;;5074160;28;20035;-37
2023/12/01 10:17:51;;;;;;;15.88;2.10;;;;;;;;;;5072957;28;20040;-37
2023/12/01 10:20:21;;;;;;;12.27;2.05;;;;;;;;;;5077579;28;20710;-38
2023/12/01 10:22:49;;;;;;;4.15;1.50;;;;;;;;;;5094164;28;20031;-42
2023/12/01 10:25:16;;;;;;;5.57;1.88;;;;;;;;;;5093757;28;20035;-41
2023/12/01 10:27:54;;;;;;;5.65;1.90;;;;;;;;;;5087525;28;20086;-40
2023/12/01 10:30:22;;;;;;;4.07;1.52;;;;;;;;;;5075634;28;20025;-39
2023/12/01 10:32:49;;;;;;;6.22;2.05;;;;;;;;;;5093348;28;20490;-38
2023/12/01 10:35:16;;;;;;;6.50;1.80;;;;;;;;;;5093308;28;20032;-39
2023/12/01 10:37:43;;;;;;;4.50;1.73;;;;;;;;;;5092023;28;20031;-41
2023/12/01 10:40:13;;;;;;;7.10;1.73;;;;;;;;;;5093311;28;20016;-39
2023/12/01 10:42:41;;;;;;;10.07;1.80;;;;;;;;;;5092340;28;20030;-39
2023/12/01 10:45:08;;;;;;;6.18;1.70;;;;;;;;;;5093346;28;20036;-39
2023/12/01 10:47:37;;;;;;;5.30;1.38;;;;;;;;;;5093032;28;20072;-41
2023/12/01 10:50:05;;;;;;;6.50;1.48;;;;;;;;;;5090817;28;20031;-41
2023/12/01 10:52:33;;;;;;;4.65;1.52;;;;;;;;;;5092854;28;20036;-41
2023/12/01 10:55:00;;;;;;;5.15;1.70;;;;;;;;;;5093289;28;20048;-43
2023/12/01 10:57:30;;;;;;;7.15;1.60;;;;;;;;;;5093335;28;20489;-44
2023/12/01 11:00:00;;;;;;;4.13;1.50;;;;;;;;;;5090988;28;20072;-44
2023/12/01 11:02:28;;;;;;;4.60;1.85;;;;;;;;;;5092656;28;20119;-42
2023/12/01 11:04:55;;;;;;;5.97;1.73;;;;;;;;;;5092604;28;20409;-44
2023/12/01 11:07:31;;;;;;;3.33;1.63;;;;;;;;;;5091919;28;20024;-40
2023/12/01 11:10:13;;;;;;;3.45;1.33;;;;;;;;;;5088150;28;20027;-42
2023/12/01 11:12:43;;;;;;;5.13;1.70;;;;;;;;;;5090171;28;20016;-45
2023/12/01 11:15:19;;;;;;;8.00;1.38;;;;;;;;;;5092710;28;20020;-37
2023/12/01 11:17:46;;;;;;;4.90;1.17;;;;;;;;;;5089251;28;20111;-37
2023/12/01 11:20:32;;;;;;;34.53;2.88;;;;;;;;;;5090247;28;20107;-37
2023/12/01 11:23:05;;;;;;;5.28;1.60;;;;;;;;;;5092860;28;20546;-37
2023/12/01 11:25:46;;;;;;;12.30;1.80;;;;;;;;;;5092695;28;20474;-50
2023/12/01 11:28:22;;;;;;;145.27;5.43;;;;;;;;;;5089000;28;20389;-44
2023/12/01 11:31:13;;;;;;;31.00;2.35;;;;;;;;;;5088235;28;20390;-42
2023/12/01 11:33:44;;;;;;;21.90;2.05;;;;;;;;;;5089468;28;20473;-43
2023/12/01 11:36:21;;;;;;;20.35;1.95;;;;;;;;;;5088528;28;20466;-40
2023/12/01 11:39:26;;;;;;;24.23;2.53;;;;;;;;;;5087867;28;20386;-40
2023/12/01 11:42:04;;;;;;;27.80;3.27;;;;;;;;;;5086935;28;20396;-43
2023/12/01 11:44:37;;;;;;;18.42;2.83;;;;;;;;;;5088078;28;20418;-44
2023/12/01 11:47:06;;;;;;;197.55;17.48;;;;;;;;;;5090467;28;20391;-42
2023/12/01 11:49:35;;;;;;;103.40;9.63;;;;;;;;;;5090255;28;20783;-41
2023/12/01 11:52:03;;;;;;;61.67;6.22;;;;;;;;;;5089955;28;20760;-41
2023/12/01 11:54:35;;;;;;;30.43;3.77;;;;;;;;;;5090354;28;20374;-39
2023/12/01 11:57:02;;;;;;;22.67;3.22;;;;;;;;;;5088144;28;20383;-39
2023/12/01 11:59:29;;;;;;;16.27;2.30;;;;;;;;;;5090306;28;20469;-40
2023/12/01 12:01:56;;;;;;;12.57;2.20;;;;;;;;;;5091221;28;20427;-40
2023/12/01 12:04:24;;;;;;;169.48;6.60;;;;;;;;;;5090618;28;20499;-49
2023/12/01 12:06:51;;;;;;;80.38;6.97;;;;;;;;;;5090991;28;20894;-48
2023/12/01 12:09:19;;;;;;;65.93;6.85;;;;;;;;;;5090992;28;20396;-48
2023/12/01 12:11:53;;;;;;;44.15;4.78;;;;;;;;;;5090858;28;20473;-47
2023/12/01 12:14:23;;;;;;;51.25;4.80;;;;;;;;;;5090806;28;20473;-53
2023/12/01 12:16:50;;;;;;;23.23;3.38;;;;;;;;;;5090705;28;20737;-48
2023/12/01 12:19:18;;;;;;;20.20;3.25;;;;;;;;;;5090880;28;20378;-49
2023/12/01 12:21:45;;;;;;;12.00;2.30;;;;;;;;;;5090964;28;20402;-49
2023/12/01 12:24:12;;;;;;;9.75;2.13;;;;;;;;;;5090728;28;20431;-50
2023/12/01 12:26:40;;;;;;;13.20;1.95;;;;;;;;;;5090706;28;20725;-48
2023/12/01 12:29:08;;;;;;;11.73;2.00;;;;;;;;;;5090539;28;20370;-49
2023/12/01 12:31:36;;;;;;;11.07;1.73;;;;;;;;;;5089395;28;20393;-47
2023/12/01 12:34:05;;;;;;;8.07;1.70;;;;;;;;;;5090732;28;20944;-48
2023/12/01 12:36:32;;;;;;;7.88;1.65;;;;;;;;;;5089741;28;20810;-48
2023/12/01 12:39:01;;;;;;;9.18;1.67;;;;;;;;;;5087464;28;20405;-50
2023/12/01 12:41:29;;;;;;;13.18;1.92;;;;;;;;;;5089980;28;20420;-51
2023/12/01 12:43:57;;;;;;;9.05;1.92;;;;;;;;;;5090185;28;20476;-48
2023/12/01 12:46:25;;;;;;;8.40;1.85;;;;;;;;;;5090378;28;20461;-48
2023/12/01 12:48:56;;;;;;;6.38;1.70;;;;;;;;;;5090581;28;20520;-50
2023/12/01 12:51:24;;;;;;;5.93;1.30;;;;;;;;;;5090143;28;20890;-48
2023/12/01 12:53:52;;;;;;;7.13;1.50;;;;;;;;;;5090014;28;21016;-48
2023/12/01 12:56:21;;;;;;;4.95;1.13;;;;;;;;;;5087228;28;20486;-50
2023/12/01 12:58:52;;;;;;;4.93;1.23;;;;;;;;;;5089822;28;20924;-47
2023/12/01 13:01:19;;;;;;;3.80;1.27;;;;;;;;;;5087437;28;20393;-47
2023/12/01 13:03:46;;;;;;;5.75;1.23;;;;;;;;;;5089537;28;20417;-42
2023/12/01 13:06:13;;;;;;;7.47;1.30;;;;;;;;;;5090282;28;20405;-45
2023/12/01 13:08:41;;;;;;;7.40;1.35;;;;;;;;;;5089938;28;20931;-46
2023/12/01 13:11:09;;;;;;;5.83;1.20;;;;;;;;;;5089602;28;20389;-47
2023/12/01 13:13:38;;;;;;;3.70;0.93;;;;;;;;;;5090326;28;20743;-45
2023/12/01 13:16:05;;;;;;;2.75;1.00;;;;;;;;;;5090332;28;21591;-44
2023/12/01 13:18:34;;;;;;;3.88;1.17;;;;;;;;;;5090436;28;20470;-46
2023/12/01 13:21:01;;;;;;;3.58;1.00;;;;;;;;;;5090274;28;20417;-43
2023/12/01 13:23:28;;;;;;;2.40;1.10;;;;;;;;;;5090230;28;20397;-44
2023/12/01 13:25:55;;;;;;;3.55;1.00;;;;;;;;;;5090366;28;20374;-47
2023/12/01 13:28:22;;;;;;;2.42;0.80;;;;;;;;;;5090173;28;20386;-45
2023/12/01 13:30:50;;;;;;;3.15;0.82;;;;;;;;;;5090256;28;20382;-45
2023/12/01 13:33:17;;;;;;;3.10;0.85;;;;;;;;;;5090223;28;20379;-44
2023/12/01 13:35:44;;;;;;;6.22;0.90;;;;;;;;;;5090229;28;20386;-45
2023/12/01 13:38:11;;;;;;;2.70;0.80;;;;;;;;;;5090084;28;20374;-45
2023/12/01 13:40:40;;;;;;;4.30;0.95;;;;;;;;;;5090228;28;20397;-45
2023/12/01 13:43:07;;;;;;;4.18;0.95;;;;;;;;;;5090025;28;20412;-47
2023/12/01 13:45:36;;;;;;;4.30;0.90;;;;;;;;;;5090023;28;20436;-45
2023/12/01 13:48:03;;;;;;;4.70;1.20;;;;;;;;;;5089929;28;20382;-46
2023/12/01 13:50:30;;;;;;;3.97;1.00;;;;;;;;;;5089973;28;20448;-44
2023/12/01 13:52:57;;;;;;;3.60;1.00;;;;;;;;;;5092901;28;20404;-45
2023/12/01 13:55:24;;;;;;;3.93;1.00;;;;;;;;;;5093728;28;20465;-45
2023/12/01 13:57:51;;;;;;;6.07;1.08;;;;;;;;;;5093576;28;20406;-45
2023/12/01 14:00:19;;;;;;;2.83;1.10;;;;;;;;;;5093618;28;20448;-46
2023/12/01 14:02:49;;;;;;;4.43;1.05;;;;;;;;;;5093253;28;20481;-46
2023/12/01 14:05:20;;;;;;;3.83;1.00;;;;;;;;;;5093375;28;20408;-48
2023/12/01 14:07:47;;;;;;;4.30;1.33;;;;;;;;;;5093383;28;20892;-49
2023/12/01 14:10:15;;;;;;;3.20;0.90;;;;;;;;;;5093393;28;20381;-46
2023/12/01 14:12:42;;;;;;;3.17;1.17;;;;;;;;;;5093404;28;20445;-46
2023/12/01 14:15:10;;;;;;;4.85;1.13;;;;;;;;;;5093136;28;20384;-47
2023/12/01 14:17:37;;;;;;;2.25;1.10;;;;;;;;;;5093146;28;20394;-48
2023/12/01 14:20:04;;;;;;;5.40;1.00;;;;;;;;;;5093269;28;20378;-47
2023/12/01 14:22:31;;;;;;;3.78;1.20;;;;;;;;;;5091825;28;20401;-47
2023/12/01 14:24:58;;;;;;;2.47;1.02;;;;;;;;;;5093067;28;20409;-50
2023/12/01 14:27:25;;;;;;;3.50;1.10;;;;;;;;;;5093022;28;20382;-47
2023/12/01 14:29:52;;;;;;;3.97;1.20;;;;;;;;;;5093056;28;20385;-49
2023/12/01 14:32:21;;;;;;;6.70;1.30;;;;;;;;;;5092919;28;20791;-45
2023/12/01 14:34:48;;;;;;;3.15;1.15;;;;;;;;;;5092856;28;20389;-51
2023/12/01 14:37:15;;;;;;;3.38;1.13;;;;;;;;;;5092683;28;20740;-45
2023/12/01 14:39:43;;;;;;;4.18;1.10;;;;;;;;;;5092230;28;20860;-47
2023/12/01 14:42:10;;;;;;;2.67;1.02;;;;;;;;;;5092085;28;20737;-46
2023/12/01 14:44:37;;;;;;;4.20;1.00;;;;;;;;;;5090577;28;20418;-46